sensor_id;sensor_type;location;lat;lon;timestamp;temperature;humidity
52495;DHT22;38405;53.212;5.660;2023-02-28T00:01:06;4.20;99.90
52495;DHT22;38405;53.212;5.660;2023-02-28T00:03:32;4.30;99.90
52495;DHT22;38405;53.212;5.660;2023-02-28T00:06:01;4.30;99.90
52495;DHT22;38405;53.212;5.660;2023-02-28T00:08:27;4.30;99.90
52495;DHT22;38405;53.212;5.660;2023-02-28T00:10:53;4.30;99.90
52495;DHT22;38405;53.212;5.660;2023-02-28T00:13:19;4.30;99.90
52495;DHT22;38405;53.212;5.660;2023-02-28T00:15:45;4.30;99.90
52495;DHT22;38405;53.212;5.660;2023-02-28T00:18:11;4.40;99.90
52495;DHT22;38405;53.212;5.660;2023-02-28T00:20:37;4.40;99.90
52495;DHT22;38405;53.212;5.660;2023-02-28T00:23:03;4.60;99.90
52495;DHT22;38405;53.212;5.660;2023-02-28T00:25:32;4.40;99.90
52495;DHT22;38405;53.212;5.660;2023-02-28T00:27:57;4.30;99.90
52495;DHT22;38405;53.212;5.660;2023-02-28T00:30:23;4.40;99.90
52495;DHT22;38405;53.212;5.660;2023-02-28T00:32:50;4.30;99.90
52495;DHT22;38405;53.212;5.660;2023-02-28T00:35:16;4.30;99.90
52495;DHT22;38405;53.212;5.660;2023-02-28T00:37:42;4.40;99.90
52495;DHT22;38405;53.212;5.660;2023-02-28T00:40:08;4.70;99.90
52495;DHT22;38405;53.212;5.660;2023-02-28T00:42:35;4.40;99.90
52495;DHT22;38405;53.212;5.660;2023-02-28T00:45:01;4.40;99.90
52495;DHT22;38405;53.212;5.660;2023-02-28T00:47:29;4.40;99.90
52495;DHT22;38405;53.212;5.660;2023-02-28T00:49:54;4.40;99.90
52495;DHT22;38405;53.212;5.660;2023-02-28T00:52:20;4.50;99.90
52495;DHT22;38405;53.212;5.660;2023-02-28T00:54:46;4.50;99.90
52495;DHT22;38405;53.212;5.660;2023-02-28T00:57:12;4.50;99.90
52495;DHT22;38405;53.212;5.660;2023-02-28T00:59:38;4.50;99.90
52495;DHT22;38405;53.212;5.660;2023-02-28T01:02:03;4.50;99.90
52495;DHT22;38405;53.212;5.660;2023-02-28T01:04:29;4.50;99.90
52495;DHT22;38405;53.212;5.660;2023-02-28T01:06:55;4.50;99.90
52495;DHT22;38405;53.212;5.660;2023-02-28T01:09:20;4.50;99.90
52495;DHT22;38405;53.212;5.660;2023-02-28T01:11:52;4.50;99.90
52495;DHT22;38405;53.212;5.660;2023-02-28T01:14:18;4.50;99.90
52495;DHT22;38405;53.212;5.660;2023-02-28T01:16:44;4.50;99.90
52495;DHT22;38405;53.212;5.660;2023-02-28T01:19:12;5.20;99.90
52495;DHT22;38405;53.212;5.660;2023-02-28T01:21:38;4.50;99.90
52495;DHT22;38405;53.212;5.660;2023-02-28T01:24:04;4.50;99.90
52495;DHT22;38405;53.212;5.660;2023-02-28T01:26:30;4.50;99.90
52495;DHT22;38405;53.212;5.660;2023-02-28T01:28:56;4.50;99.90
52495;DHT22;38405;53.212;5.660;2023-02-28T01:31:22;4.50;99.90
52495;DHT22;38405;53.212;5.660;2023-02-28T01:33:49;4.50;99.90
52495;DHT22;38405;53.212;5.660;2023-02-28T01:36:17;4.50;99.90
52495;DHT22;38405;53.212;5.660;2023-02-28T01:38:43;4.50;99.90
52495;DHT22;38405;53.212;5.660;2023-02-28T01:41:18;4.40;99.90
52495;DHT22;38405;53.212;5.660;2023-02-28T01:46:11;4.80;99.90
52495;DHT22;38405;53.212;5.660;2023-02-28T01:48:42;4.30;99.90
52495;DHT22;38405;53.212;5.660;2023-02-28T01:51:15;4.20;99.90
52495;DHT22;38405;53.212;5.660;2023-02-28T01:54:02;3.70;99.90
52495;DHT22;38405;53.212;5.660;2023-02-28T01:56:33;4.20;99.90
52495;DHT22;38405;53.212;5.660;2023-02-28T01:59:00;4.10;99.90
52495;DHT22;38405;53.212;5.660;2023-02-28T02:01:27;4.10;99.90
52495;DHT22;38405;53.212;5.660;2023-02-28T02:04:02;4.20;99.90
52495;DHT22;38405;53.212;5.660;2023-02-28T02:06:41;4.10;99.90
52495;DHT22;38405;53.212;5.660;2023-02-28T02:09:07;4.10;99.90
52495;DHT22;38405;53.212;5.660;2023-02-28T02:11:34;4.50;99.90
52495;DHT22;38405;53.212;5.660;2023-02-28T02:16:53;4.20;99.90
52495;DHT22;38405;53.212;5.660;2023-02-28T02:22:23;4.20;99.90
52495;DHT22;38405;53.212;5.660;2023-02-28T02:35:59;4.50;99.90
52495;DHT22;38405;53.212;5.660;2023-02-28T02:38:32;4.60;99.90
52495;DHT22;38405;53.212;5.660;2023-02-28T02:43:58;4.80;99.90
52495;DHT22;38405;53.212;5.660;2023-02-28T02:46:43;4.80;99.90
52495;DHT22;38405;53.212;5.660;2023-02-28T02:49:14;4.90;99.90
52495;DHT22;38405;53.212;5.660;2023-02-28T02:51:41;4.90;99.90
52495;DHT22;38405;53.212;5.660;2023-02-28T02:54:11;4.90;99.90
52495;DHT22;38405;53.212;5.660;2023-02-28T02:56:41;4.90;99.90
52495;DHT22;38405;53.212;5.660;2023-02-28T02:59:11;5.00;99.90
52495;DHT22;38405;53.212;5.660;2023-02-28T03:01:39;5.00;99.90
52495;DHT22;38405;53.212;5.660;2023-02-28T03:04:11;5.00;99.90
52495;DHT22;38405;53.212;5.660;2023-02-28T03:06:38;5.10;99.90
52495;DHT22;38405;53.212;5.660;2023-02-28T03:09:04;5.10;99.90
52495;DHT22;38405;53.212;5.660;2023-02-28T03:11:30;5.00;99.90
52495;DHT22;38405;53.212;5.660;2023-02-28T03:33:30;5.20;99.90
52495;DHT22;38405;53.212;5.660;2023-02-28T03:36:04;5.10;99.90
52495;DHT22;38405;53.212;5.660;2023-02-28T03:38:40;5.10;99.90
52495;DHT22;38405;53.212;5.660;2023-02-28T03:41:22;5.10;99.90
52495;DHT22;38405;53.212;5.660;2023-02-28T03:43:58;5.10;99.90
52495;DHT22;38405;53.212;5.660;2023-02-28T03:46:26;5.20;99.90
52495;DHT22;38405;53.212;5.660;2023-02-28T03:49:03;5.10;99.90
52495;DHT22;38405;53.212;5.660;2023-02-28T03:51:32;5.10;99.90
52495;DHT22;38405;53.212;5.660;2023-02-28T03:54:02;5.10;99.90
52495;DHT22;38405;53.212;5.660;2023-02-28T03:56:45;5.20;99.90
52495;DHT22;38405;53.212;5.660;2023-02-28T03:59:17;5.10;99.90
52495;DHT22;38405;53.212;5.660;2023-02-28T04:01:45;5.10;99.90
52495;DHT22;38405;53.212;5.660;2023-02-28T04:04:13;5.20;99.90
52495;DHT22;38405;53.212;5.660;2023-02-28T04:06:39;5.20;99.90
52495;DHT22;38405;53.212;5.660;2023-02-28T04:09:07;5.20;99.90
52495;DHT22;38405;53.212;5.660;2023-02-28T04:11:38;5.30;99.90
52495;DHT22;38405;53.212;5.660;2023-02-28T04:14:06;5.20;99.90
52495;DHT22;38405;53.212;5.660;2023-02-28T04:16:34;5.20;99.90
52495;DHT22;38405;53.212;5.660;2023-02-28T04:19:01;5.30;99.90
52495;DHT22;38405;53.212;5.660;2023-02-28T04:21:32;5.20;99.90
52495;DHT22;38405;53.212;5.660;2023-02-28T04:23:58;5.30;99.90
52495;DHT22;38405;53.212;5.660;2023-02-28T04:26:35;5.20;99.90
52495;DHT22;38405;53.212;5.660;2023-02-28T04:29:02;5.20;99.90
52495;DHT22;38405;53.212;5.660;2023-02-28T04:31:28;5.30;99.90
52495;DHT22;38405;53.212;5.660;2023-02-28T04:33:54;5.30;99.90
52495;DHT22;38405;53.212;5.660;2023-02-28T04:36:19;5.30;99.90
52495;DHT22;38405;53.212;5.660;2023-02-28T04:38:45;5.30;99.90
52495;DHT22;38405;53.212;5.660;2023-02-28T04:41:12;5.40;99.90
52495;DHT22;38405;53.212;5.660;2023-02-28T04:43:41;5.50;99.90
52495;DHT22;38405;53.212;5.660;2023-02-28T04:46:07;5.70;99.90
52495;DHT22;38405;53.212;5.660;2023-02-28T04:48:35;5.50;99.90
52495;DHT22;38405;53.212;5.660;2023-02-28T04:51:09;5.50;99.90
52495;DHT22;38405;53.212;5.660;2023-02-28T04:53:39;5.70;99.90
52495;DHT22;38405;53.212;5.660;2023-02-28T04:56:05;5.80;99.90
52495;DHT22;38405;53.212;5.660;2023-02-28T04:58:31;5.60;99.90
52495;DHT22;38405;53.212;5.660;2023-02-28T05:01:05;5.90;99.90
52495;DHT22;38405;53.212;5.660;2023-02-28T05:03:41;5.60;99.90
52495;DHT22;38405;53.212;5.660;2023-02-28T05:06:08;5.60;99.90
52495;DHT22;38405;53.212;5.660;2023-02-28T05:08:35;5.60;99.90
52495;DHT22;38405;53.212;5.660;2023-02-28T05:11:02;5.60;99.90
52495;DHT22;38405;53.212;5.660;2023-02-28T05:13:31;5.70;99.90
52495;DHT22;38405;53.212;5.660;2023-02-28T05:16:01;5.60;99.90
52495;DHT22;38405;53.212;5.660;2023-02-28T05:18:26;5.60;99.90
52495;DHT22;38405;53.212;5.660;2023-02-28T05:20:52;5.70;99.90
52495;DHT22;38405;53.212;5.660;2023-02-28T05:23:19;5.70;99.90
52495;DHT22;38405;53.212;5.660;2023-02-28T05:25:46;5.70;99.90
52495;DHT22;38405;53.212;5.660;2023-02-28T05:28:12;5.80;99.90
52495;DHT22;38405;53.212;5.660;2023-02-28T05:30:37;5.70;99.90
52495;DHT22;38405;53.212;5.660;2023-02-28T05:33:03;5.70;99.90
52495;DHT22;38405;53.212;5.660;2023-02-28T05:35:29;6.60;99.90
52495;DHT22;38405;53.212;5.660;2023-02-28T05:37:54;5.80;99.90
52495;DHT22;38405;53.212;5.660;2023-02-28T05:40:20;5.80;99.90
52495;DHT22;38405;53.212;5.660;2023-02-28T05:42:46;5.80;99.90
52495;DHT22;38405;53.212;5.660;2023-02-28T05:45:12;6.00;99.90
52495;DHT22;38405;53.212;5.660;2023-02-28T05:47:38;5.80;99.90
52495;DHT22;38405;53.212;5.660;2023-02-28T05:50:05;5.80;99.90
52495;DHT22;38405;53.212;5.660;2023-02-28T05:52:31;5.80;99.90
52495;DHT22;38405;53.212;5.660;2023-02-28T05:54:57;5.80;99.90
52495;DHT22;38405;53.212;5.660;2023-02-28T05:57:23;5.80;99.90
52495;DHT22;38405;53.212;5.660;2023-02-28T05:59:48;5.80;99.90
52495;DHT22;38405;53.212;5.660;2023-02-28T06:02:17;6.00;99.90
52495;DHT22;38405;53.212;5.660;2023-02-28T06:04:43;5.80;99.90
52495;DHT22;38405;53.212;5.660;2023-02-28T06:07:10;5.90;99.90
52495;DHT22;38405;53.212;5.660;2023-02-28T06:09:36;5.90;99.90
52495;DHT22;38405;53.212;5.660;2023-02-28T06:12:03;5.80;99.90
52495;DHT22;38405;53.212;5.660;2023-02-28T06:14:31;5.80;99.90
52495;DHT22;38405;53.212;5.660;2023-02-28T06:16:57;5.80;99.90
52495;DHT22;38405;53.212;5.660;2023-02-28T06:19:23;5.80;99.90
52495;DHT22;38405;53.212;5.660;2023-02-28T06:21:51;5.80;99.90
52495;DHT22;38405;53.212;5.660;2023-02-28T06:24:19;5.80;99.90
52495;DHT22;38405;53.212;5.660;2023-02-28T06:26:45;5.80;99.90
52495;DHT22;38405;53.212;5.660;2023-02-28T06:29:14;5.70;99.90
52495;DHT22;38405;53.212;5.660;2023-02-28T06:31:46;5.80;99.90
52495;DHT22;38405;53.212;5.660;2023-02-28T06:34:12;6.30;99.90
52495;DHT22;38405;53.212;5.660;2023-02-28T06:36:39;5.80;99.90
52495;DHT22;38405;53.212;5.660;2023-02-28T06:39:05;5.80;99.90
52495;DHT22;38405;53.212;5.660;2023-02-28T06:41:34;5.70;99.90
52495;DHT22;38405;53.212;5.660;2023-02-28T06:44:04;5.80;99.90
52495;DHT22;38405;53.212;5.660;2023-02-28T06:46:31;5.80;99.90
52495;DHT22;38405;53.212;5.660;2023-02-28T06:48:57;5.80;99.90
52495;DHT22;38405;53.212;5.660;2023-02-28T06:51:22;5.80;99.90
52495;DHT22;38405;53.212;5.660;2023-02-28T06:53:50;5.70;99.90
52495;DHT22;38405;53.212;5.660;2023-02-28T06:56:19;5.60;99.90
52495;DHT22;38405;53.212;5.660;2023-02-28T06:58:48;5.40;99.90
52495;DHT22;38405;53.212;5.660;2023-02-28T07:01:14;5.00;99.90
52495;DHT22;38405;53.212;5.660;2023-02-28T07:03:40;5.10;99.90
52495;DHT22;38405;53.212;5.660;2023-02-28T07:06:06;4.50;99.90
52495;DHT22;38405;53.212;5.660;2023-02-28T07:08:32;4.20;99.90
52495;DHT22;38405;53.212;5.660;2023-02-28T07:10:58;4.10;99.90
52495;DHT22;38405;53.212;5.660;2023-02-28T07:13:24;4.50;99.90
52495;DHT22;38405;53.212;5.660;2023-02-28T07:16:04;4.40;99.90
52495;DHT22;38405;53.212;5.660;2023-02-28T07:18:31;3.80;99.90
52495;DHT22;38405;53.212;5.660;2023-02-28T07:20:56;4.80;99.90
52495;DHT22;38405;53.212;5.660;2023-02-28T07:23:22;3.70;99.90
52495;DHT22;38405;53.212;5.660;2023-02-28T07:25:50;3.70;99.90
52495;DHT22;38405;53.212;5.660;2023-02-28T07:28:16;3.60;99.90
52495;DHT22;38405;53.212;5.660;2023-02-28T07:30:41;3.50;99.90
52495;DHT22;38405;53.212;5.660;2023-02-28T07:33:07;3.50;99.90
52495;DHT22;38405;53.212;5.660;2023-02-28T07:35:33;3.40;99.90
52495;DHT22;38405;53.212;5.660;2023-02-28T07:38:00;3.40;99.90
52495;DHT22;38405;53.212;5.660;2023-02-28T07:40:30;3.30;99.90
52495;DHT22;38405;53.212;5.660;2023-02-28T07:42:56;3.30;99.90
52495;DHT22;38405;53.212;5.660;2023-02-28T07:45:21;3.30;99.90
52495;DHT22;38405;53.212;5.660;2023-02-28T07:47:47;3.30;99.90
52495;DHT22;38405;53.212;5.660;2023-02-28T07:50:14;3.30;99.90
52495;DHT22;38405;53.212;5.660;2023-02-28T07:52:40;3.30;99.90
52495;DHT22;38405;53.212;5.660;2023-02-28T07:55:08;3.30;99.90
52495;DHT22;38405;53.212;5.660;2023-02-28T07:57:34;3.30;99.90
52495;DHT22;38405;53.212;5.660;2023-02-28T07:59:59;3.30;99.90
52495;DHT22;38405;53.212;5.660;2023-02-28T08:02:25;3.30;99.90
52495;DHT22;38405;53.212;5.660;2023-02-28T08:04:51;3.30;99.90
52495;DHT22;38405;53.212;5.660;2023-02-28T08:07:19;3.30;99.90
52495;DHT22;38405;53.212;5.660;2023-02-28T08:09:45;3.30;99.90
52495;DHT22;38405;53.212;5.660;2023-02-28T08:12:11;3.30;99.90
52495;DHT22;38405;53.212;5.660;2023-02-28T08:14:37;3.30;99.90
52495;DHT22;38405;53.212;5.660;2023-02-28T08:17:04;3.30;99.90
52495;DHT22;38405;53.212;5.660;2023-02-28T08:19:30;3.30;99.90
52495;DHT22;38405;53.212;5.660;2023-02-28T08:22:02;3.50;99.90
52495;DHT22;38405;53.212;5.660;2023-02-28T08:24:27;3.40;99.90
52495;DHT22;38405;53.212;5.660;2023-02-28T08:26:54;3.40;99.90
52495;DHT22;38405;53.212;5.660;2023-02-28T08:29:19;3.30;99.90
52495;DHT22;38405;53.212;5.660;2023-02-28T08:31:45;3.70;99.90
52495;DHT22;38405;53.212;5.660;2023-02-28T08:34:15;3.40;99.90
52495;DHT22;38405;53.212;5.660;2023-02-28T08:36:59;3.30;99.90
52495;DHT22;38405;53.212;5.660;2023-02-28T08:39:25;3.30;99.90
52495;DHT22;38405;53.212;5.660;2023-02-28T08:41:51;3.30;99.90
52495;DHT22;38405;53.212;5.660;2023-02-28T08:44:17;3.40;99.90
52495;DHT22;38405;53.212;5.660;2023-02-28T08:46:42;3.50;99.90
52495;DHT22;38405;53.212;5.660;2023-02-28T08:49:10;3.40;99.90
52495;DHT22;38405;53.212;5.660;2023-02-28T08:51:36;3.40;99.90
52495;DHT22;38405;53.212;5.660;2023-02-28T08:54:02;3.50;99.90
52495;DHT22;38405;53.212;5.660;2023-02-28T08:56:28;3.60;99.90
52495;DHT22;38405;53.212;5.660;2023-02-28T08:58:55;3.60;99.90
52495;DHT22;38405;53.212;5.660;2023-02-28T09:01:27;3.60;99.90
52495;DHT22;38405;53.212;5.660;2023-02-28T09:03:53;3.60;99.90
52495;DHT22;38405;53.212;5.660;2023-02-28T09:06:21;3.60;99.90
52495;DHT22;38405;53.212;5.660;2023-02-28T09:08:48;3.70;99.90
52495;DHT22;38405;53.212;5.660;2023-02-28T09:11:14;3.80;99.90
52495;DHT22;38405;53.212;5.660;2023-02-28T09:13:40;4.00;99.90
52495;DHT22;38405;53.212;5.660;2023-02-28T09:16:08;4.50;99.90
52495;DHT22;38405;53.212;5.660;2023-02-28T09:18:37;4.20;99.90
52495;DHT22;38405;53.212;5.660;2023-02-28T09:21:04;4.20;99.90
52495;DHT22;38405;53.212;5.660;2023-02-28T09:23:30;4.30;99.90
52495;DHT22;38405;53.212;5.660;2023-02-28T09:25:56;4.30;99.90
52495;DHT22;38405;53.212;5.660;2023-02-28T09:28:22;4.30;99.90
52495;DHT22;38405;53.212;5.660;2023-02-28T09:30:50;4.50;99.90
52495;DHT22;38405;53.212;5.660;2023-02-28T09:33:16;4.60;99.90
52495;DHT22;38405;53.212;5.660;2023-02-28T09:35:42;4.60;99.90
52495;DHT22;38405;53.212;5.660;2023-02-28T09:38:09;4.70;99.90
52495;DHT22;38405;53.212;5.660;2023-02-28T09:40:37;4.80;99.90
52495;DHT22;38405;53.212;5.660;2023-02-28T09:43:04;4.80;99.90
52495;DHT22;38405;53.212;5.660;2023-02-28T09:45:36;4.80;99.90
52495;DHT22;38405;53.212;5.660;2023-02-28T09:48:10;5.20;99.90
52495;DHT22;38405;53.212;5.660;2023-02-28T09:50:46;5.10;99.90
52495;DHT22;38405;53.212;5.660;2023-02-28T09:53:27;5.30;99.90
52495;DHT22;38405;53.212;5.660;2023-02-28T09:56:21;5.50;99.90
52495;DHT22;38405;53.212;5.660;2023-02-28T10:02:08;5.60;99.90
52495;DHT22;38405;53.212;5.660;2023-02-28T10:05:02;5.50;99.90
52495;DHT22;38405;53.212;5.660;2023-02-28T10:10:34;5.30;99.90
52495;DHT22;38405;53.212;5.660;2023-02-28T10:13:06;5.20;99.90
52495;DHT22;38405;53.212;5.660;2023-02-28T10:15:38;5.20;99.90
52495;DHT22;38405;53.212;5.660;2023-02-28T10:18:06;5.40;99.90
52495;DHT22;38405;53.212;5.660;2023-02-28T10:20:39;5.20;99.90
52495;DHT22;38405;53.212;5.660;2023-02-28T10:23:17;5.20;99.90
52495;DHT22;38405;53.212;5.660;2023-02-28T10:25:59;5.20;99.90
52495;DHT22;38405;53.212;5.660;2023-02-28T10:28:26;5.30;99.90
52495;DHT22;38405;53.212;5.660;2023-02-28T10:30:54;5.40;99.90
52495;DHT22;38405;53.212;5.660;2023-02-28T10:33:30;5.50;99.90
52495;DHT22;38405;53.212;5.660;2023-02-28T10:35:56;5.50;99.90
52495;DHT22;38405;53.212;5.660;2023-02-28T10:38:27;5.70;99.90
52495;DHT22;38405;53.212;5.660;2023-02-28T10:41:08;6.00;99.90
52495;DHT22;38405;53.212;5.660;2023-02-28T10:43:34;6.30;99.90
52495;DHT22;38405;53.212;5.660;2023-02-28T10:46:16;6.90;99.90
52495;DHT22;38405;53.212;5.660;2023-02-28T10:49:14;6.90;99.90
52495;DHT22;38405;53.212;5.660;2023-02-28T10:51:43;7.80;99.90
52495;DHT22;38405;53.212;5.660;2023-02-28T10:54:22;8.40;99.90
52495;DHT22;38405;53.212;5.660;2023-02-28T10:57:18;9.00;99.90
52495;DHT22;38405;53.212;5.660;2023-02-28T10:59:44;9.20;99.90
52495;DHT22;38405;53.212;5.660;2023-02-28T11:02:30;9.20;99.90
52495;DHT22;38405;53.212;5.660;2023-02-28T11:04:57;8.70;99.90
52495;DHT22;38405;53.212;5.660;2023-02-28T11:07:23;8.40;99.90
52495;DHT22;38405;53.212;5.660;2023-02-28T11:09:59;8.20;99.90
52495;DHT22;38405;53.212;5.660;2023-02-28T11:12:34;8.30;99.90
52495;DHT22;38405;53.212;5.660;2023-02-28T11:15:05;8.50;99.90
52495;DHT22;38405;53.212;5.660;2023-02-28T11:17:32;8.60;99.90
52495;DHT22;38405;53.212;5.660;2023-02-28T11:20:01;8.70;99.90
52495;DHT22;38405;53.212;5.660;2023-02-28T11:22:32;8.90;99.90
52495;DHT22;38405;53.212;5.660;2023-02-28T11:25:12;9.10;99.90
52495;DHT22;38405;53.212;5.660;2023-02-28T11:27:50;9.10;99.90
52495;DHT22;38405;53.212;5.660;2023-02-28T11:32:52;8.80;99.90
52495;DHT22;38405;53.212;5.660;2023-02-28T11:35:26;8.80;99.90
52495;DHT22;38405;53.212;5.660;2023-02-28T11:37:52;8.90;99.90
52495;DHT22;38405;53.212;5.660;2023-02-28T11:40:24;9.00;99.90
52495;DHT22;38405;53.212;5.660;2023-02-28T11:43:18;9.10;99.90
52495;DHT22;38405;53.212;5.660;2023-02-28T11:45:53;9.30;99.90
52495;DHT22;38405;53.212;5.660;2023-02-28T11:48:58;9.50;99.90
52495;DHT22;38405;53.212;5.660;2023-02-28T11:51:35;9.50;99.90
52495;DHT22;38405;53.212;5.660;2023-02-28T11:56:54;9.70;99.90
52495;DHT22;38405;53.212;5.660;2023-02-28T11:59:47;9.80;99.90
52495;DHT22;38405;53.212;5.660;2023-02-28T12:02:30;9.80;99.90
52495;DHT22;38405;53.212;5.660;2023-02-28T12:05:18;9.70;99.90
52495;DHT22;38405;53.212;5.660;2023-02-28T12:22:19;10.20;99.90
52495;DHT22;38405;53.212;5.660;2023-02-28T12:27:34;10.20;99.90
52495;DHT22;38405;53.212;5.660;2023-02-28T12:30:27;10.50;99.90
52495;DHT22;38405;53.212;5.660;2023-02-28T12:33:03;9.90;99.90
52495;DHT22;38405;53.212;5.660;2023-02-28T12:35:59;9.60;99.90
52495;DHT22;38405;53.212;5.660;2023-02-28T12:38:29;9.40;99.90
52495;DHT22;38405;53.212;5.660;2023-02-28T12:41:01;9.20;99.90
52495;DHT22;38405;53.212;5.660;2023-02-28T12:43:36;9.00;99.90
52495;DHT22;38405;53.212;5.660;2023-02-28T12:46:32;9.00;99.90
52495;DHT22;38405;53.212;5.660;2023-02-28T12:49:00;9.20;99.90
52495;DHT22;38405;53.212;5.660;2023-02-28T12:51:30;9.60;99.90
52495;DHT22;38405;53.212;5.660;2023-02-28T13:10:39;10.90;99.90
52495;DHT22;38405;53.212;5.660;2023-02-28T13:13:05;11.20;99.90
52495;DHT22;38405;53.212;5.660;2023-02-28T13:15:31;11.10;99.90
52495;DHT22;38405;53.212;5.660;2023-02-28T13:18:00;11.10;99.90
52495;DHT22;38405;53.212;5.660;2023-02-28T13:20:47;11.20;99.90
52495;DHT22;38405;53.212;5.660;2023-02-28T13:26:17;11.30;99.90
52495;DHT22;38405;53.212;5.660;2023-02-28T13:31:20;11.30;99.90
52495;DHT22;38405;53.212;5.660;2023-02-28T13:44:19;10.60;99.90
52495;DHT22;38405;53.212;5.660;2023-02-28T13:49:26;10.90;99.90
52495;DHT22;38405;53.212;5.660;2023-02-28T14:06:34;10.20;99.90
52495;DHT22;38405;53.212;5.660;2023-02-28T14:11:45;9.80;99.90
52495;DHT22;38405;53.212;5.660;2023-02-28T14:17:03;9.60;99.90
52495;DHT22;38405;53.212;5.660;2023-02-28T14:19:31;9.40;99.90
52495;DHT22;38405;53.212;5.660;2023-02-28T14:28:02;9.30;99.90
52495;DHT22;38405;53.212;5.660;2023-02-28T14:31:04;9.20;99.90
52495;DHT22;38405;53.212;5.660;2023-02-28T14:36:04;9.30;99.90
52495;DHT22;38405;53.212;5.660;2023-02-28T14:38:36;9.20;99.90
52495;DHT22;38405;53.212;5.660;2023-02-28T14:41:06;9.00;99.90
52495;DHT22;38405;53.212;5.660;2023-02-28T14:43:49;9.10;99.90
52495;DHT22;38405;53.212;5.660;2023-02-28T14:46:16;9.10;99.90
52495;DHT22;38405;53.212;5.660;2023-02-28T14:48:45;9.10;99.90
52495;DHT22;38405;53.212;5.660;2023-02-28T14:51:22;9.20;99.90
52495;DHT22;38405;53.212;5.660;2023-02-28T14:53:57;9.20;99.90
52495;DHT22;38405;53.212;5.660;2023-02-28T14:56:32;9.10;99.90
52495;DHT22;38405;53.212;5.660;2023-02-28T14:58:59;9.10;99.90
52495;DHT22;38405;53.212;5.660;2023-02-28T15:01:26;9.00;99.90
52495;DHT22;38405;53.212;5.660;2023-02-28T15:04:01;9.00;99.90
52495;DHT22;38405;53.212;5.660;2023-02-28T15:06:28;8.80;99.90
52495;DHT22;38405;53.212;5.660;2023-02-28T15:09:15;8.80;99.90
52495;DHT22;38405;53.212;5.660;2023-02-28T15:11:42;8.60;99.90
52495;DHT22;38405;53.212;5.660;2023-02-28T15:14:16;8.40;99.90
52495;DHT22;38405;53.212;5.660;2023-02-28T15:16:44;8.40;99.90
52495;DHT22;38405;53.212;5.660;2023-02-28T15:19:24;8.20;99.90
52495;DHT22;38405;53.212;5.660;2023-02-28T15:22:08;8.20;99.90
52495;DHT22;38405;53.212;5.660;2023-02-28T15:24:46;8.50;99.90
52495;DHT22;38405;53.212;5.660;2023-02-28T15:27:33;8.00;99.90
52495;DHT22;38405;53.212;5.660;2023-02-28T15:30:11;7.90;99.90
52495;DHT22;38405;53.212;5.660;2023-02-28T15:32:39;7.80;99.90
52495;DHT22;38405;53.212;5.660;2023-02-28T15:35:27;7.60;99.90
52495;DHT22;38405;53.212;5.660;2023-02-28T15:38:40;7.60;99.90
52495;DHT22;38405;53.212;5.660;2023-02-28T15:40:49;7.50;99.90
52495;DHT22;38405;53.212;5.660;2023-02-28T15:43:38;7.50;99.90
52495;DHT22;38405;53.212;5.660;2023-02-28T15:46:08;7.40;99.90
52495;DHT22;38405;53.212;5.660;2023-02-28T15:48:55;7.50;99.90
52495;DHT22;38405;53.212;5.660;2023-02-28T15:51:34;7.30;99.90
52495;DHT22;38405;53.212;5.660;2023-02-28T15:54:05;7.30;99.90
52495;DHT22;38405;53.212;5.660;2023-02-28T15:56:52;7.20;99.90
52495;DHT22;38405;53.212;5.660;2023-02-28T15:59:27;7.10;99.90
52495;DHT22;38405;53.212;5.660;2023-02-28T16:04:28;6.90;99.90
52495;DHT22;38405;53.212;5.660;2023-02-28T16:09:25;6.90;99.90
52495;DHT22;38405;53.212;5.660;2023-02-28T16:11:54;6.70;99.90
52495;DHT22;38405;53.212;5.660;2023-02-28T16:14:26;6.80;99.90
52495;DHT22;38405;53.212;5.660;2023-02-28T16:17:06;6.60;99.90
52495;DHT22;38405;53.212;5.660;2023-02-28T16:19:34;6.60;99.90
52495;DHT22;38405;53.212;5.660;2023-02-28T16:22:00;6.50;99.90
52495;DHT22;38405;53.212;5.660;2023-02-28T16:24:26;6.40;99.90
52495;DHT22;38405;53.212;5.660;2023-02-28T16:26:53;6.30;99.90
52495;DHT22;38405;53.212;5.660;2023-02-28T16:29:26;6.40;99.90
52495;DHT22;38405;53.212;5.660;2023-02-28T16:31:54;6.20;99.90
52495;DHT22;38405;53.212;5.660;2023-02-28T16:34:23;6.10;99.90
52495;DHT22;38405;53.212;5.660;2023-02-28T16:36:49;6.10;99.90
52495;DHT22;38405;53.212;5.660;2023-02-28T16:39:15;6.00;99.90
52495;DHT22;38405;53.212;5.660;2023-02-28T16:41:47;5.90;99.90
52495;DHT22;38405;53.212;5.660;2023-02-28T16:44:35;5.80;99.90
52495;DHT22;38405;53.212;5.660;2023-02-28T16:47:02;5.80;99.90
52495;DHT22;38405;53.212;5.660;2023-02-28T16:49:28;5.70;99.90
52495;DHT22;38405;53.212;5.660;2023-02-28T16:51:53;5.70;99.90
52495;DHT22;38405;53.212;5.660;2023-02-28T16:54:19;5.60;99.90
52495;DHT22;38405;53.212;5.660;2023-02-28T16:56:46;5.50;99.90
52495;DHT22;38405;53.212;5.660;2023-02-28T16:59:13;5.40;99.90
52495;DHT22;38405;53.212;5.660;2023-02-28T17:01:41;5.30;99.90
52495;DHT22;38405;53.212;5.660;2023-02-28T17:04:11;5.20;99.90
52495;DHT22;38405;53.212;5.660;2023-02-28T17:06:39;5.10;99.90
52495;DHT22;38405;53.212;5.660;2023-02-28T17:09:05;5.00;99.90
52495;DHT22;38405;53.212;5.660;2023-02-28T17:11:34;4.90;99.90
52495;DHT22;38405;53.212;5.660;2023-02-28T17:13:59;4.90;99.90
52495;DHT22;38405;53.212;5.660;2023-02-28T17:16:33;4.80;99.90
52495;DHT22;38405;53.212;5.660;2023-02-28T17:19:03;4.70;99.90
52495;DHT22;38405;53.212;5.660;2023-02-28T17:21:31;4.60;99.90
52495;DHT22;38405;53.212;5.660;2023-02-28T17:24:00;4.60;99.90
52495;DHT22;38405;53.212;5.660;2023-02-28T17:26:26;4.50;99.90
52495;DHT22;38405;53.212;5.660;2023-02-28T17:28:54;4.50;99.90
52495;DHT22;38405;53.212;5.660;2023-02-28T17:31:22;4.40;99.90
52495;DHT22;38405;53.212;5.660;2023-02-28T17:33:47;4.30;99.90
52495;DHT22;38405;53.212;5.660;2023-02-28T17:36:21;4.40;99.90
52495;DHT22;38405;53.212;5.660;2023-02-28T17:38:59;4.10;99.90
52495;DHT22;38405;53.212;5.660;2023-02-28T17:41:25;4.20;99.90
52495;DHT22;38405;53.212;5.660;2023-02-28T17:43:52;4.00;99.90
52495;DHT22;38405;53.212;5.660;2023-02-28T17:46:23;4.00;99.90
52495;DHT22;38405;53.212;5.660;2023-02-28T17:48:50;4.00;99.90
52495;DHT22;38405;53.212;5.660;2023-02-28T17:51:17;4.10;99.90
52495;DHT22;38405;53.212;5.660;2023-02-28T17:53:43;4.00;99.90
52495;DHT22;38405;53.212;5.660;2023-02-28T17:56:12;4.00;99.90
52495;DHT22;38405;53.212;5.660;2023-02-28T17:58:39;4.00;99.90
52495;DHT22;38405;53.212;5.660;2023-02-28T18:01:05;3.90;99.90
52495;DHT22;38405;53.212;5.660;2023-02-28T18:03:30;3.90;99.90
52495;DHT22;38405;53.212;5.660;2023-02-28T18:05:59;3.90;99.90
52495;DHT22;38405;53.212;5.660;2023-02-28T18:08:25;3.90;99.90
52495;DHT22;38405;53.212;5.660;2023-02-28T18:10:52;3.90;99.90
52495;DHT22;38405;53.212;5.660;2023-02-28T18:13:17;3.80;99.90
52495;DHT22;38405;53.212;5.660;2023-02-28T18:15:43;3.70;99.90
52495;DHT22;38405;53.212;5.660;2023-02-28T18:18:09;3.70;99.90
52495;DHT22;38405;53.212;5.660;2023-02-28T18:20:37;3.70;99.90
52495;DHT22;38405;53.212;5.660;2023-02-28T18:23:03;4.30;99.90